Time;durP1;ratioP1;P1;durP2;ratioP2;P2;SDS_P1;SDS_P2;PMS_P1;PMS_P2;Temp;Humidity;BMP_temperature;BMP_pressure;BME280_temperature;BME280_humidity;BME280_pressure;Samples;Min_cycle;Max_cycle;Signal;HPM_P1;HPM_P2
2022/04/13 00:00:07;;;;;;;14.82;7.47;;;9.80;89.10;;;;;;4997917;28;19967;-70
2022/04/13 00:02:33;;;;;;;13.43;7.30;;;9.80;89.10;;;;;;4992820;28;20037;-70
2022/04/13 00:04:59;;;;;;;13.97;8.17;;;9.70;89.70;;;;;;4998032;28;20018;-71
2022/04/13 00:07:25;;;;;;;12.47;7.37;;;9.80;89.40;;;;;;4993780;28;20024;-70
2022/04/13 00:09:51;;;;;;;15.40;7.57;;;9.80;89.80;;;;;;4997681;28;20014;-70
2022/04/13 00:12:17;;;;;;;;;;;9.70;89.70;;;;;;4997059;28;20025;-70
2022/04/13 00:14:43;;;;;;;14.30;8.05;;;9.70;90.00;;;;;;4995710;28;19920;-70
2022/04/13 00:17:08;;;;;;;12.70;7.90;;;9.70;90.10;;;;;;4998447;28;20037;-71
2022/04/13 00:19:34;;;;;;;14.33;6.93;;;9.70;90.00;;;;;;4995487;28;20645;-71
2022/04/13 00:22:00;;;;;;;18.77;7.70;;;9.70;90.30;;;;;;4993979;28;20060;-70
2022/04/13 00:24:26;;;;;;;12.40;7.70;;;9.70;90.30;;;;;;4991838;28;20025;-71
2022/04/13 00:26:52;;;;;;;13.07;8.00;;;9.70;90.20;;;;;;4997172;28;20018;-70
2022/04/13 00:29:18;;;;;;;13.10;7.50;;;9.70;90.20;;;;;;4995583;28;20026;-71
2022/04/13 00:31:44;;;;;;;15.45;8.63;;;9.60;90.40;;;;;;4996389;28;20105;-71
2022/04/13 00:34:10;;;;;;;13.90;7.67;;;9.60;90.40;;;;;;4977145;28;20041;-70
2022/04/13 00:36:35;;;;;;;13.57;7.50;;;9.60;90.50;;;;;;4975477;28;20026;-70
2022/04/13 00:39:02;;;;;;;14.50;8.00;;;9.60;90.50;;;;;;4997213;28;20057;-70
2022/04/13 00:41:28;;;;;;;14.38;7.95;;;9.60;90.60;;;;;;4977642;28;20030;-70
2022/04/13 00:44:05;;;;;;;13.63;8.00;;;9.60;90.70;;;;;;4979636;28;20025;-71
2022/04/13 00:46:32;;;;;;;22.98;7.72;;;9.50;91.20;;;;;;4974265;28;20063;-71
2022/04/13 00:48:58;;;;;;;13.05;7.50;;;9.50;91.30;;;;;;4979293;28;20038;-70
2022/04/13 00:51:25;;;;;;;12.82;7.15;;;9.50;91.40;;;;;;4994063;28;20021;-70
2022/04/13 00:53:51;;;;;;;12.82;7.25;;;9.40;91.30;;;;;;4975352;28;20037;-71
2022/04/13 00:56:23;;;;;;;12.00;7.35;;;9.40;91.60;;;;;;4997942;28;20022;-70
2022/04/13 00:58:54;;;;;;;13.18;6.72;;;9.40;91.50;;;;;;4994518;28;20372;-71
2022/04/13 01:01:22;;;;;;;14.98;7.57;;;9.40;91.60;;;;;;4996181;28;20026;-71
2022/04/13 01:03:54;;;;;;;12.23;6.80;;;9.40;91.40;;;;;;4994443;28;20045;-72
2022/04/13 01:06:20;;;;;;;12.05;7.40;;;9.40;91.50;;;;;;4993946;28;20025;-71
2022/04/13 01:08:50;;;;;;;13.98;7.55;;;9.30;91.40;;;;;;4997079;28;20471;-71
2022/04/13 01:11:17;;;;;;;15.07;7.65;;;9.20;91.60;;;;;;4995556;28;20026;-71
2022/04/13 01:13:42;;;;;;;13.02;7.78;;;9.20;91.50;;;;;;4997378;28;20498;-71
2022/04/13 01:16:10;;;;;;;14.27;8.07;;;9.20;91.80;;;;;;4980436;28;20026;-71
2022/04/13 01:18:35;;;;;;;17.55;7.60;;;9.10;91.80;;;;;;4998742;28;20033;-71
2022/04/13 01:21:01;;;;;;;13.80;8.33;;;9.10;91.90;;;;;;4974157;28;20139;-71
2022/04/13 01:23:29;;;;;;;20.38;7.90;;;9.10;92.00;;;;;;4995690;28;20438;-71
2022/04/13 01:25:55;;;;;;;12.00;6.88;;;9.10;92.00;;;;;;4991581;28;20058;-71
2022/04/13 01:28:22;;;;;;;14.75;7.63;;;9.10;92.30;;;;;;4972721;28;20025;-72
2022/04/13 01:30:49;;;;;;;15.15;7.32;;;9.10;92.00;;;;;;4995482;28;20057;-71
2022/04/13 01:33:15;;;;;;;12.93;7.03;;;9.10;92.00;;;;;;4977990;28;20080;-71
2022/04/13 01:35:41;;;;;;;16.38;7.80;;;9.10;92.40;;;;;;4984061;28;20054;-71
2022/04/13 01:38:07;;;;;;;12.50;7.80;;;9.00;92.50;;;;;;4992315;28;20692;-71
2022/04/13 01:40:34;;;;;;;12.77;7.22;;;9.00;92.40;;;;;;4994451;28;20066;-71
2022/04/13 01:43:00;;;;;;;13.23;7.22;;;9.00;92.20;;;;;;4991787;28;20091;-72
2022/04/13 01:45:25;;;;;;;14.70;7.63;;;9.00;92.30;;;;;;4992876;28;20364;-71
2022/04/13 01:47:52;;;;;;;14.37;7.90;;;9.00;92.20;;;;;;4994269;28;20056;-71
2022/04/13 01:50:19;;;;;;;12.63;7.05;;;9.00;92.40;;;;;;4995246;28;20014;-72
2022/04/13 01:52:46;;;;;;;12.73;7.50;;;9.00;92.70;;;;;;4995935;28;20029;-72
2022/04/13 01:55:12;;;;;;;12.43;7.55;;;8.90;92.50;;;;;;4991311;28;21499;-72
2022/04/13 01:57:42;;;;;;;12.68;7.25;;;8.90;92.50;;;;;;4982959;28;20034;-73
2022/04/13 02:00:12;;;;;;;13.25;7.60;;;8.90;92.60;;;;;;4989333;28;20137;-72
2022/04/13 02:02:37;;;;;;;13.00;7.50;;;8.80;92.70;;;;;;4977456;28;20124;-74
2022/04/13 02:05:05;;;;;;;12.27;7.63;;;8.70;92.70;;;;;;4973510;28;20130;-71
2022/04/13 02:07:30;;;;;;;13.35;6.82;;;8.70;92.90;;;;;;4980761;28;20014;-72
2022/04/13 02:09:56;;;;;;;13.90;7.70;;;8.70;92.90;;;;;;4973673;28;20022;-72
2022/04/13 02:12:22;;;;;;;14.20;7.33;;;8.70;92.80;;;;;;4993641;28;20035;-71
2022/04/13 02:14:48;;;;;;;12.80;7.93;;;8.70;92.80;;;;;;4995160;28;20058;-71
2022/04/13 02:17:16;;;;;;;14.73;7.70;;;8.70;92.70;;;;;;4991221;28;20187;-72
2022/04/13 02:19:43;;;;;;;12.90;7.10;;;8.70;92.70;;;;;;4996657;28;20030;-71
2022/04/13 02:22:10;;;;;;;13.50;6.93;;;8.70;92.60;;;;;;4963296;28;20253;-72
2022/04/13 02:24:40;;;;;;;;;;;8.70;92.60;;;;;;4995654;28;20030;-72
2022/04/13 02:27:09;;;;;;;11.35;6.85;;;8.70;92.60;;;;;;4991392;28;19960;-72
2022/04/13 02:29:36;;;;;;;13.30;7.05;;;8.70;92.60;;;;;;4994588;28;20471;-72
2022/04/13 02:32:03;;;;;;;15.32;7.60;;;8.70;92.50;;;;;;4990895;28;20030;-72
2022/04/13 02:34:29;;;;;;;14.23;7.97;;;8.70;92.40;;;;;;4979820;28;20027;-72
2022/04/13 02:36:56;;;;;;;13.00;7.20;;;8.70;92.50;;;;;;4991405;28;20099;-71
2022/04/13 02:39:23;;;;;;;13.00;7.43;;;8.70;92.50;;;;;;4982987;28;20052;-71
2022/04/13 02:41:49;;;;;;;12.40;7.50;;;8.70;92.50;;;;;;4991907;28;20037;-71
2022/04/13 02:44:15;;;;;;;13.90;7.47;;;8.70;92.50;;;;;;4991219;28;20022;-72
2022/04/13 02:46:41;;;;;;;15.60;7.47;;;8.70;92.60;;;;;;4974298;28;20447;-71
2022/04/13 02:49:07;;;;;;;;;;;8.70;92.50;;;;;;4978080;28;20035;-71
2022/04/13 02:51:33;;;;;;;16.80;7.47;;;8.70;92.30;;;;;;4995506;28;19985;-71
2022/04/13 02:53:59;;;;;;;10.43;7.03;;;8.70;92.40;;;;;;4991239;28;20085;-71
2022/04/13 02:56:25;;;;;;;13.00;7.17;;;8.70;92.40;;;;;;4977619;28;20026;-71
2022/04/13 02:58:50;;;;;;;12.57;6.82;;;8.70;92.40;;;;;;4991777;28;20034;-72
2022/04/13 03:01:16;;;;;;;12.23;7.47;;;8.60;92.40;;;;;;4964736;28;20805;-71
2022/04/13 03:03:42;;;;;;;12.90;6.90;;;8.70;92.40;;;;;;4994096;28;20753;-71
2022/04/13 03:06:07;;;;;;;14.97;7.17;;;8.60;92.50;;;;;;4990045;28;20026;-72
2022/04/13 03:08:33;;;;;;;16.43;6.77;;;8.50;92.70;;;;;;4977995;28;20624;-74
2022/04/13 03:10:59;;;;;;;11.27;6.63;;;8.40;92.80;;;;;;4990327;28;20030;-71
2022/04/13 03:13:25;;;;;;;13.87;7.50;;;8.40;92.90;;;;;;4998657;28;20032;-72
2022/04/13 03:15:51;;;;;;;13.32;6.85;;;8.40;93.00;;;;;;4999034;28;20522;-71
2022/04/13 03:18:17;;;;;;;13.30;6.83;;;8.40;93.10;;;;;;4997862;28;20112;-71
2022/04/13 03:20:42;;;;;;;11.63;7.20;;;8.30;93.20;;;;;;4998415;28;20042;-72
2022/04/13 03:23:09;;;;;;;12.50;6.67;;;8.30;93.30;;;;;;4975159;28;20121;-76
2022/04/13 03:25:35;;;;;;;13.25;6.85;;;8.20;93.30;;;;;;4998878;28;20704;-72
2022/04/13 03:28:00;;;;;;;14.03;7.13;;;8.20;93.40;;;;;;4992738;28;20034;-72
2022/04/13 03:30:26;;;;;;;12.20;7.00;;;8.20;93.70;;;;;;4977923;28;20022;-72
2022/04/13 03:32:53;;;;;;;12.13;6.70;;;8.10;93.50;;;;;;4998744;28;20463;-72
2022/04/13 03:35:19;;;;;;;12.57;6.72;;;8.10;93.60;;;;;;4993679;28;20778;-72
2022/04/13 03:37:44;;;;;;;13.57;6.27;;;8.00;93.60;;;;;;4999543;28;20026;-74
2022/04/13 03:40:11;;;;;;;14.30;7.43;;;8.00;93.80;;;;;;4980174;28;20080;-72
2022/04/13 03:42:38;;;;;;;;;;;8.00;93.80;;;;;;4997942;28;20034;-72
2022/04/13 03:45:11;;;;;;;16.10;6.95;;;7.90;93.90;;;;;;4994169;28;19906;-72
2022/04/13 03:47:39;;;;;;;12.45;6.88;;;7.90;94.00;;;;;;4999493;28;20018;-71
2022/04/13 03:50:06;;;;;;;14.00;6.90;;;7.90;94.10;;;;;;4993767;28;20049;-71
2022/04/13 03:52:33;;;;;;;9.85;6.15;;;7.90;94.20;;;;;;4998530;28;20097;-72
2022/04/13 03:55:00;;;;;;;13.13;6.03;;;7.80;94.10;;;;;;4994538;28;20033;-70
2022/04/13 03:57:27;;;;;;;13.70;6.65;;;7.80;94.10;;;;;;4998693;28;20490;-73
2022/04/13 03:59:53;;;;;;;12.13;6.25;;;7.80;94.10;;;;;;4996938;28;20033;-72
2022/04/13 04:02:18;;;;;;;11.83;5.70;;;7.80;94.20;;;;;;4968315;28;20034;-72
2022/04/13 04:04:44;;;;;;;10.57;6.43;;;7.80;94.20;;;;;;4978132;28;20026;-72
2022/04/13 04:07:10;;;;;;;12.23;7.03;;;7.80;94.10;;;;;;4994011;28;20030;-72
2022/04/13 04:09:35;;;;;;;9.90;6.03;;;7.80;94.00;;;;;;4997962;28;20026;-72
2022/04/13 04:12:01;;;;;;;12.50;6.63;;;7.90;93.80;;;;;;4993900;28;20479;-76
2022/04/13 04:14:27;;;;;;;15.60;6.72;;;7.90;93.90;;;;;;4982632;28;20049;-74
2022/04/13 04:16:55;;;;;;;9.80;5.70;;;7.90;93.70;;;;;;4991546;28;20476;-71
2022/04/13 04:19:22;;;;;;;9.50;5.65;;;7.90;93.60;;;;;;4993697;28;20022;-72
2022/04/13 04:21:48;;;;;;;11.23;6.20;;;8.00;93.50;;;;;;4997820;28;20076;-74
2022/04/13 04:24:14;;;;;;;12.27;6.10;;;8.00;93.40;;;;;;4972921;28;20031;-72
2022/04/13 04:26:40;;;;;;;11.37;5.77;;;8.00;93.40;;;;;;4997670;28;20029;-72
2022/04/13 04:29:06;;;;;;;10.87;5.83;;;8.00;93.30;;;;;;4992542;28;20544;-71
2022/04/13 04:31:49;;;;;;;12.63;6.17;;;8.10;93.00;;;;;;4992182;28;20049;-72
2022/04/13 04:34:16;;;;;;;10.70;5.75;;;8.10;93.00;;;;;;4993400;28;20413;-74
2022/04/13 04:36:42;;;;;;;;;;;8.10;92.90;;;;;;4998440;28;20750;-71
2022/04/13 04:39:08;;;;;;;11.73;5.95;;;8.20;92.90;;;;;;4993430;28;19914;-76
2022/04/13 04:41:34;;;;;;;12.07;5.87;;;8.20;92.80;;;;;;4993871;28;20030;-74
2022/04/13 04:44:00;;;;;;;10.93;5.82;;;8.40;92.60;;;;;;4978741;28;20384;-71
2022/04/13 04:46:27;;;;;;;11.82;6.45;;;8.40;92.20;;;;;;4997259;28;20033;-73
2022/04/13 04:48:54;;;;;;;10.73;5.75;;;8.50;92.30;;;;;;4983828;28;20030;-75
2022/04/13 04:51:19;;;;;;;12.40;5.90;;;8.60;91.90;;;;;;4993365;28;20013;-72
2022/04/13 04:53:47;;;;;;;16.10;5.70;;;8.80;92.00;;;;;;4997510;28;20403;-75
2022/04/13 04:56:14;;;;;;;12.48;5.70;;;9.00;91.40;;;;;;4976933;28;20034;-72
2022/04/13 04:58:39;;;;;;;;;;;10.00;89.70;;;;;;4996757;28;20022;-72
2022/04/13 05:01:05;;;;;;;10.43;5.10;;;11.40;85.00;;;;;;4970973;28;20686;-72
2022/04/13 05:03:33;;;;;;;9.70;5.70;;;12.70;81.30;;;;;;4996317;28;20523;-71
2022/04/13 05:05:59;;;;;;;9.40;5.53;;;14.10;74.60;;;;;;4995392;28;20022;-72
2022/04/13 05:08:25;;;;;;;10.65;5.60;;;15.00;70.20;;;;;;4994056;28;20018;-71
2022/04/13 05:10:51;;;;;;;8.98;5.13;;;15.60;66.80;;;;;;4992788;28;20058;-71
2022/04/13 05:13:20;;;;;;;10.77;5.27;;;16.20;64.50;;;;;;4974964;28;20067;-71
2022/04/13 05:15:47;;;;;;;9.68;5.70;;;15.80;61.70;;;;;;4996034;28;20058;-71
2022/04/13 05:18:13;;;;;;;10.30;5.38;;;16.50;60.60;;;;;;4977484;28;21466;-71
2022/04/13 05:20:39;;;;;;;9.48;5.68;;;15.90;61.10;;;;;;4994996;28;20042;-72
2022/04/13 05:23:05;;;;;;;;;;;15.50;61.90;;;;;;4991841;28;20014;-72
2022/04/13 05:25:31;;;;;;;12.80;5.95;;;15.20;62.50;;;;;;4977267;28;20004;-72
2022/04/13 05:27:57;;;;;;;;;;;14.10;63.90;;;;;;4983089;28;20748;-71
2022/04/13 05:30:23;;;;;;;8.48;5.45;;;13.10;66.00;;;;;;4995708;28;19916;-71
2022/04/13 05:32:56;;;;;;;11.02;6.15;;;12.80;68.30;;;;;;4976230;28;20109;-72
2022/04/13 05:35:23;;;;;;;11.05;5.75;;;13.00;68.60;;;;;;4995277;28;20032;-72
2022/04/13 05:37:49;;;;;;;9.60;5.60;;;13.60;66.30;;;;;;4975292;28;20026;-72
2022/04/13 05:40:16;;;;;;;8.40;5.07;;;14.50;64.10;;;;;;4995049;28;20109;-73
2022/04/13 05:42:41;;;;;;;9.55;5.80;;;15.60;63.20;;;;;;4994081;28;20030;-73
2022/04/13 05:45:08;;;;;;;9.37;5.30;;;16.40;60.10;;;;;;4995906;28;20418;-72
2022/04/13 05:47:34;;;;;;;9.77;5.75;;;16.40;57.60;;;;;;4991713;28;20261;-72
2022/04/13 05:50:01;;;;;;;10.73;6.25;;;15.40;58.40;;;;;;4975256;28;20054;-72
2022/04/13 05:52:27;;;;;;;9.65;5.72;;;15.70;58.70;;;;;;4977463;28;20029;-72
2022/04/13 05:54:53;;;;;;;11.68;6.00;;;16.20;58.00;;;;;;4991896;28;20029;-72
2022/04/13 05:57:19;;;;;;;9.37;5.17;;;16.30;57.40;;;;;;4993618;28;20643;-71
2022/04/13 05:59:45;;;;;;;11.67;6.47;;;16.30;58.00;;;;;;4992459;28;20351;-72
2022/04/13 06:02:11;;;;;;;10.57;5.70;;;17.80;55.30;;;;;;4995204;28;20295;-72
2022/04/13 06:04:38;;;;;;;9.10;5.85;;;17.80;53.00;;;;;;4990656;28;20035;-73
2022/04/13 06:07:03;;;;;;;9.07;5.55;;;16.90;54.20;;;;;;4993267;28;20503;-72
2022/04/13 06:09:29;;;;;;;8.07;5.65;;;16.70;56.30;;;;;;4995507;28;20026;-72
2022/04/13 06:11:55;;;;;;;10.95;6.30;;;17.60;53.80;;;;;;4990745;28;20064;-73
2022/04/13 06:14:21;;;;;;;7.70;5.47;;;18.70;52.20;;;;;;4995830;28;20030;-72
2022/04/13 06:16:47;;;;;;;8.75;5.43;;;19.10;50.60;;;;;;4971710;28;20026;-72
2022/04/13 06:19:13;;;;;;;9.80;6.00;;;20.30;48.80;;;;;;4995785;28;20080;-72
2022/04/13 06:21:38;;;;;;;9.57;5.82;;;19.10;49.30;;;;;;4989904;28;20168;-73
2022/04/13 06:24:04;;;;;;;8.77;5.75;;;19.30;48.90;;;;;;4994803;28;20021;-72
2022/04/13 06:26:30;;;;;;;9.05;5.20;;;19.20;49.10;;;;;;4995195;28;20033;-72
2022/04/13 06:28:56;;;;;;;6.53;4.88;;;18.30;50.40;;;;;;4975514;28;20018;-72
2022/04/13 06:31:22;;;;;;;9.18;5.32;;;19.30;49.90;;;;;;4975088;28;20694;-73
2022/04/13 06:33:52;;;;;;;12.82;6.40;;;19.90;47.90;;;;;;4989187;28;20023;-73
2022/04/13 06:36:18;;;;;;;9.27;5.80;;;19.30;47.40;;;;;;4978056;28;20029;-72
2022/04/13 06:38:44;;;;;;;9.82;5.72;;;18.50;49.10;;;;;;4991268;28;20030;-73
2022/04/13 06:41:14;;;;;;;8.63;5.90;;;17.90;50.10;;;;;;4994139;28;20088;-72
2022/04/13 06:43:40;;;;;;;9.38;5.60;;;19.00;49.00;;;;;;4990977;28;20014;-73
2022/04/13 06:46:07;;;;;;;9.88;5.88;;;19.40;49.10;;;;;;4995679;28;20029;-72
2022/04/13 06:48:36;;;;;;;12.55;5.97;;;19.60;47.60;;;;;;4985595;28;20018;-72
2022/04/13 06:51:03;;;;;;;10.15;6.15;;;20.60;46.70;;;;;;4998289;28;20101;-72
2022/04/13 06:53:29;;;;;;;13.23;5.70;;;19.50;46.70;;;;;;4999283;28;20030;-72
2022/04/13 06:55:55;;;;;;;12.90;5.90;;;19.50;48.10;;;;;;4978134;28;20781;-72
2022/04/13 06:58:20;;;;;;;10.18;5.68;;;18.90;47.60;;;;;;4996236;28;20025;-72
2022/04/13 07:00:47;;;;;;;8.40;5.65;;;20.50;47.60;;;;;;4994315;28;20762;-73
2022/04/13 07:03:14;;;;;;;9.80;5.93;;;21.50;45.60;;;;;;4979426;28;20689;-72
2022/04/13 07:05:39;;;;;;;9.32;5.43;;;21.00;44.90;;;;;;4992291;28;20057;-72
2022/04/13 07:08:07;;;;;;;9.10;5.88;;;19.90;46.50;;;;;;4999631;28;20549;-73
2022/04/13 07:10:34;;;;;;;10.13;5.88;;;19.20;46.80;;;;;;4982478;28;20576;-73
2022/04/13 07:13:01;;;;;;;8.60;5.80;;;19.30;47.50;;;;;;4995152;28;20025;-72
2022/04/13 07:15:27;;;;;;;9.15;5.75;;;19.50;47.00;;;;;;4999113;28;20053;-72
2022/04/13 07:17:56;;;;;;;8.70;5.55;;;20.40;46.70;;;;;;4997239;28;20045;-73
2022/04/13 07:20:22;;;;;;;9.63;5.97;;;20.80;45.30;;;;;;4992610;28;20021;-72
2022/04/13 07:22:52;;;;;;;8.70;5.25;;;21.10;45.70;;;;;;4986913;28;20026;-72
2022/04/13 07:25:19;;;;;;;9.52;5.97;;;21.70;44.60;;;;;;4998756;28;20490;-72
2022/04/13 07:27:46;;;;;;;9.63;6.55;;;21.50;43.60;;;;;;4975034;28;20656;-72
2022/04/13 07:30:15;;;;;;;9.57;6.15;;;19.90;46.00;;;;;;4998211;28;20065;-72
2022/04/13 07:32:45;;;;;;;10.52;5.70;;;19.60;46.90;;;;;;4994143;28;20036;-72
2022/04/13 07:35:12;;;;;;;9.48;5.80;;;19.60;47.30;;;;;;4983210;28;20029;-72
2022/04/13 07:37:43;;;;;;;14.40;6.45;;;18.80;47.40;;;;;;4996853;28;20363;-73
2022/04/13 07:40:11;;;;;;;10.13;5.80;;;18.30;49.40;;;;;;4994974;28;20468;-72
2022/04/13 07:42:37;;;;;;;8.95;5.75;;;19.70;47.50;;;;;;4997517;28;20033;-72
2022/04/13 07:45:03;;;;;;;;;;;20.80;46.40;;;;;;4992249;28;20022;-72
2022/04/13 07:47:29;;;;;;;12.10;5.70;;;22.20;44.50;;;;;;4998757;28;19913;-72
2022/04/13 07:49:54;;;;;;;7.68;5.13;;;22.70;42.80;;;;;;4992082;28;20026;-72
2022/04/13 07:52:20;;;;;;;8.90;5.63;;;21.50;44.30;;;;;;4997595;28;20526;-72
2022/04/13 07:54:46;;;;;;;9.98;5.70;;;20.50;45.50;;;;;;4994882;28;20290;-72
2022/04/13 07:57:15;;;;;;;8.27;5.13;;;20.60;46.10;;;;;;4998085;28;20034;-72
2022/04/13 07:59:41;;;;;;;7.75;5.55;;;21.30;45.20;;;;;;4992415;28;20036;-72
2022/04/13 08:02:08;;;;;;;9.50;5.40;;;21.80;44.30;;;;;;4997034;28;20737;-72
2022/04/13 08:04:35;;;;;;;9.85;5.22;;;20.70;44.10;;;;;;4999010;28;20030;-72
2022/04/13 08:07:01;;;;;;;10.05;5.13;;;20.60;46.40;;;;;;4993070;28;20064;-72
2022/04/13 08:09:28;;;;;;;10.02;5.47;;;22.00;44.40;;;;;;4996564;28;20053;-72
2022/04/13 08:11:54;;;;;;;7.50;4.93;;;22.80;43.40;;;;;;4993149;28;20076;-73
2022/04/13 08:14:22;;;;;;;9.02;5.40;;;21.40;43.40;;;;;;4997074;28;20029;-72
2022/04/13 08:16:48;;;;;;;7.93;5.07;;;19.90;45.80;;;;;;4971357;28;20108;-72
2022/04/13 08:19:13;;;;;;;10.70;5.70;;;19.70;47.70;;;;;;4997941;28;20522;-72
2022/04/13 08:21:39;;;;;;;11.32;5.90;;;20.50;46.90;;;;;;4996637;28;20739;-73
2022/04/13 08:24:06;;;;;;;8.43;5.43;;;21.60;44.40;;;;;;4979135;28;20606;-72
2022/04/13 08:26:32;;;;;;;7.93;5.30;;;21.20;45.10;;;;;;4998205;28;20080;-72
2022/04/13 08:28:59;;;;;;;9.80;5.50;;;21.70;44.70;;;;;;4992943;28;20093;-72
2022/04/13 08:31:25;;;;;;;8.48;4.80;;;21.60;44.40;;;;;;4996398;28;20438;-72
2022/04/13 08:33:51;;;;;;;10.55;5.05;;;22.50;43.80;;;;;;4977495;28;20046;-73
2022/04/13 08:36:17;;;;;;;11.52;5.10;;;22.60;43.30;;;;;;4997209;28;20033;-73
2022/04/13 08:38:43;;;;;;;7.30;5.18;;;22.50;44.20;;;;;;4973966;28;20038;-73
2022/04/13 08:41:15;;;;;;;9.07;5.40;;;22.00;43.10;;;;;;4996963;28;20084;-73
2022/04/13 08:43:56;;;;;;;9.38;5.15;;;19.80;46.00;;;;;;4996781;28;20014;-72
2022/04/13 08:46:24;;;;;;;8.70;5.38;;;19.70;47.20;;;;;;4994448;28;20033;-72
2022/04/13 08:48:56;;;;;;;11.10;5.10;;;20.30;47.20;;;;;;4993063;28;20044;-72
2022/04/13 08:51:26;;;;;;;7.93;5.53;;;21.30;45.50;;;;;;4973480;28;20027;-73
2022/04/13 08:54:05;;;;;;;10.57;5.50;;;20.70;44.50;;;;;;4993098;28;20083;-72
2022/04/13 08:56:35;;;;;;;8.82;5.32;;;20.80;46.00;;;;;;4978319;28;20403;-72
2022/04/13 08:59:10;;;;;;;10.88;5.20;;;20.90;46.00;;;;;;4975041;28;20022;-73
2022/04/13 09:02:18;;;;;;;8.65;5.60;;;21.70;44.60;;;;;;4995653;28;20021;-73
2022/04/13 09:04:46;;;;;;;7.72;5.20;;;22.40;43.40;;;;;;4966290;28;20599;-73
2022/04/13 09:07:16;;;;;;;9.45;5.07;;;22.20;43.30;;;;;;4996314;28;20026;-72
2022/04/13 09:09:45;;;;;;;11.30;5.68;;;20.70;45.40;;;;;;4982121;28;20921;-72
2022/04/13 09:12:13;;;;;;;10.73;5.00;;;21.20;44.90;;;;;;4992962;28;20649;-72
2022/04/13 09:14:45;;;;;;;8.98;4.93;;;21.00;45.10;;;;;;4997438;28;20033;-72
2022/04/13 09:17:12;;;;;;;10.77;5.30;;;21.10;45.00;;;;;;4993891;28;20071;-73
2022/04/13 09:19:38;;;;;;;8.80;5.75;;;21.80;44.70;;;;;;4984179;28;20058;-72
2022/04/13 09:22:09;;;;;;;9.70;5.05;;;20.40;45.20;;;;;;4991453;28;20147;-72
2022/04/13 09:24:38;;;;;;;9.10;5.28;;;20.70;46.10;;;;;;4983200;28;20380;-72
2022/04/13 09:27:04;;;;;;;8.65;5.10;;;20.40;46.60;;;;;;4971527;28;20777;-72
2022/04/13 09:29:30;;;;;;;;;;;20.40;45.90;;;;;;4993633;28;20611;-73
2022/04/13 09:31:56;;;;;;;10.48;5.20;;;20.50;46.00;;;;;;4992072;28;19917;-72
2022/04/13 09:34:21;;;;;;;7.63;5.07;;;19.90;46.90;;;;;;4994610;28;20522;-72
2022/04/13 09:36:48;;;;;;;9.05;5.00;;;20.50;46.20;;;;;;4973707;28;20674;-73
2022/04/13 09:39:15;;;;;;;11.15;5.25;;;20.10;45.80;;;;;;4975918;28;20379;-73
2022/04/13 09:41:41;;;;;;;8.77;5.20;;;19.90;46.40;;;;;;4975995;28;20869;-73
2022/04/13 09:44:18;;;;;;;9.80;5.28;;;20.60;46.50;;;;;;4993200;28;20038;-73
2022/04/13 09:46:45;;;;;;;;;;;19.90;46.60;;;;;;4994855;28;20026;-72
2022/04/13 09:49:16;;;;;;;9.82;5.22;;;20.40;46.50;;;;;;4994670;28;19913;-72
2022/04/13 09:51:49;;;;;;;9.00;5.68;;;20.00;46.60;;;;;;4996709;28;20024;-73
2022/04/13 09:54:16;;;;;;;10.57;5.63;;;19.40;48.00;;;;;;4996811;28;20076;-73
2022/04/13 09:56:49;;;;;;;8.70;5.15;;;19.40;47.80;;;;;;4981203;28;20030;-72
2022/04/13 09:59:28;;;;;;;11.07;5.78;;;19.80;48.00;;;;;;4996966;28;20088;-72
2022/04/13 10:01:54;;;;;;;9.30;5.55;;;20.20;46.80;;;;;;4994983;28;20030;-72
2022/04/13 10:04:24;;;;;;;8.85;5.03;;;20.40;46.60;;;;;;4982600;28;20109;-72
2022/04/13 10:06:52;;;;;;;9.73;5.53;;;20.50;46.70;;;;;;4975921;28;20022;-72
2022/04/13 10:09:22;;;;;;;7.28;4.93;;;20.50;46.20;;;;;;4974409;28;20028;-73
2022/04/13 10:11:58;;;;;;;12.60;5.30;;;20.60;45.80;;;;;;4978168;28;20030;-73
2022/04/13 10:14:24;;;;;;;8.43;5.05;;;20.80;46.00;;;;;;4993570;28;20076;-72
2022/04/13 10:16:53;;;;;;;9.32;5.28;;;20.10;47.20;;;;;;4997234;28;20415;-72
2022/04/13 10:19:21;;;;;;;7.95;5.38;;;20.30;47.30;;;;;;4975441;28;20775;-73
2022/04/13 10:21:51;;;;;;;10.00;5.57;;;19.60;47.20;;;;;;4995121;28;20099;-72
2022/04/13 10:24:32;;;;;;;9.77;5.78;;;19.50;48.40;;;;;;4975185;28;20022;-74
2022/04/13 10:27:17;;;;;;;7.07;4.43;;;20.20;47.70;;;;;;4972865;28;20022;-72
2022/04/13 10:29:50;;;;;;;8.55;4.63;;;20.60;46.60;;;;;;4978332;28;20033;-72
2022/04/13 10:32:24;;;;;;;10.38;4.43;;;20.50;46.60;;;;;;4992134;28;20026;-72
2022/04/13 10:34:52;;;;;;;10.02;4.97;;;20.30;47.00;;;;;;4996594;28;20708;-72
2022/04/13 10:37:20;;;;;;;11.32;5.30;;;20.20;47.50;;;;;;4989469;28;20022;-72
2022/04/13 10:39:49;;;;;;;6.47;4.40;;;20.20;46.60;;;;;;4995922;28;20030;-73
2022/04/13 10:42:16;;;;;;;8.32;4.80;;;20.50;47.00;;;;;;4991986;28;20018;-73
2022/04/13 10:44:49;;;;;;;10.57;5.07;;;20.80;46.30;;;;;;4995455;28;20010;-73
2022/04/13 10:47:18;;;;;;;12.60;4.88;;;20.80;46.00;;;;;;4992090;28;20749;-73
2022/04/13 10:49:53;;;;;;;10.00;5.20;;;20.80;46.50;;;;;;4996993;28;20113;-73
2022/04/13 10:53:07;;;;;;;9.07;5.18;;;20.70;46.30;;;;;;4975584;28;20112;-72
2022/04/13 10:55:35;;;;;;;8.98;5.35;;;20.10;47.40;;;;;;4969613;28;20046;-73
2022/04/13 10:58:22;;;;;;;10.43;5.15;;;20.60;47.30;;;;;;4992486;28;20045;-73
2022/04/13 11:00:55;;;;;;;8.02;4.65;;;20.60;46.40;;;;;;4995181;28;20022;-73
2022/04/13 11:03:25;;;;;;;12.57;5.10;;;19.90;47.70;;;;;;4990942;28;20071;-72
2022/04/13 11:05:52;;;;;;;8.35;5.28;;;19.30;48.20;;;;;;4993045;28;20029;-72
2022/04/13 11:08:29;;;;;;;9.75;5.60;;;19.20;48.50;;;;;;4974330;28;20064;-72
2022/04/13 11:10:56;;;;;;;9.45;4.70;;;19.00;49.80;;;;;;4990402;28;20030;-74
2022/04/13 11:13:23;;;;;;;9.45;5.53;;;19.00;48.90;;;;;;4995658;28;20077;-72
2022/04/13 11:15:50;;;;;;;10.45;5.25;;;18.70;49.40;;;;;;4993417;28;20068;-72
2022/04/13 11:18:20;;;;;;;11.30;5.28;;;18.40;50.00;;;;;;4991618;28;20461;-72
2022/04/13 11:21:04;;;;;;;12.82;4.60;;;18.50;50.00;;;;;;4994197;28;20113;-72
2022/04/13 11:23:50;;;;;;;9.50;4.70;;;18.50;50.20;;;;;;4993002;28;20107;-72
2022/04/13 11:26:38;;;;;;;7.85;4.70;;;19.00;49.30;;;;;;4991868;28;20297;-72
2022/04/13 11:29:17;;;;;;;9.73;4.63;;;18.90;49.60;;;;;;4981489;28;20030;-72
2022/04/13 11:32:01;;;;;;;8.73;5.00;;;18.80;49.40;;;;;;4975443;28;20476;-73
2022/04/13 11:34:52;;;;;;;9.10;4.65;;;19.20;49.70;;;;;;4981622;28;20088;-73
2022/04/13 11:37:26;;;;;;;8.02;4.45;;;19.30;49.00;;;;;;4992158;28;20026;-73
2022/04/13 11:40:10;;;;;;;6.65;4.22;;;19.20;49.10;;;;;;4995699;28;20412;-72
2022/04/13 11:42:40;;;;;;;7.35;4.72;;;19.60;49.00;;;;;;4995651;28;20133;-73
2022/04/13 11:45:14;;;;;;;11.35;4.10;;;19.20;48.90;;;;;;4981534;28;20360;-72
2022/04/13 11:47:59;;;;;;;11.48;4.95;;;19.20;50.40;;;;;;4998546;28;20107;-72
2022/04/13 11:50:27;;;;;;;5.95;4.00;;;19.30;49.60;;;;;;4995895;28;20018;-72
2022/04/13 11:53:10;;;;;;;7.50;4.18;;;19.20;50.30;;;;;;4998594;28;20605;-73
2022/04/13 11:55:44;;;;;;;10.50;4.40;;;19.50;49.90;;;;;;4997558;28;20022;-72
2022/04/13 11:58:09;;;;;;;10.35;4.53;;;19.50;49.30;;;;;;4990937;28;20022;-73
2022/04/13 12:00:50;;;;;;;6.77;4.43;;;19.00;49.20;;;;;;4979668;28;20018;-73
2022/04/13 12:03:20;;;;;;;9.10;4.47;;;18.90;49.40;;;;;;4994341;28;20823;-73
2022/04/13 12:05:48;;;;;;;7.95;4.78;;;19.00;49.80;;;;;;4979730;28;20030;-72
2022/04/13 12:08:25;;;;;;;7.88;4.10;;;18.90;50.50;;;;;;4993794;28;20364;-72
2022/04/13 12:11:01;;;;;;;7.63;3.80;;;19.10;49.90;;;;;;4977574;28;20076;-72
2022/04/13 12:13:33;;;;;;;7.93;4.37;;;19.00;50.20;;;;;;4995072;28;20029;-72
2022/04/13 12:16:01;;;;;;;7.40;4.30;;;19.30;49.80;;;;;;4992514;28;20360;-73
2022/04/13 12:18:27;;;;;;;7.95;4.60;;;19.20;49.10;;;;;;4998421;28;20033;-72
2022/04/13 12:21:11;;;;;;;8.68;3.92;;;19.00;49.60;;;;;;4994944;28;20018;-72
2022/04/13 12:23:39;;;;;;;8.38;4.35;;;19.00;49.80;;;;;;4989990;28;21585;-73
2022/04/13 12:26:08;;;;;;;6.97;4.10;;;19.10;49.70;;;;;;4991868;28;20720;-72
2022/04/13 12:28:37;;;;;;;7.40;4.53;;;19.20;49.00;;;;;;4995722;28;20053;-72
2022/04/13 12:31:11;;;;;;;6.93;3.90;;;19.30;49.70;;;;;;4989381;28;20719;-69
2022/04/13 12:33:39;;;;;;;11.45;4.13;;;19.30;49.40;;;;;;4978240;28;20044;-72
2022/04/13 12:36:10;;;;;;;5.60;3.92;;;19.50;48.70;;;;;;4991448;28;20029;-72
2022/04/13 12:38:43;;;;;;;7.50;4.30;;;19.40;48.90;;;;;;4994961;28;20140;-72
2022/04/13 12:41:11;;;;;;;9.68;4.97;;;19.50;49.20;;;;;;4989812;28;20030;-72
2022/04/13 12:43:43;;;;;;;5.70;4.03;;;19.30;49.30;;;;;;4977147;28;20051;-72
2022/04/13 12:46:17;;;;;;;10.25;4.85;;;19.20;50.00;;;;;;4990695;28;20022;-73
2022/04/13 12:48:46;;;;;;;9.77;4.22;;;19.00;49.50;;;;;;4995761;28;20026;-72
2022/04/13 12:51:13;;;;;;;7.75;4.38;;;18.90;49.80;;;;;;4990292;28;21421;-72
2022/04/13 12:53:57;;;;;;;7.07;3.83;;;19.10;50.00;;;;;;4981963;28;20057;-72